createdAt,value
2023-02-11T00:01:10.498Z,84.75
2023-02-11T00:03:37.492Z,84.85
2023-02-11T00:06:09.189Z,84.53
2023-02-11T00:08:36.085Z,84.76
2023-02-11T00:11:02.780Z,84.75
2023-02-11T00:13:29.402Z,84.32
2023-02-11T00:15:57.271Z,84.28
2023-02-11T00:18:25.218Z,83.99
2023-02-11T00:20:51.791Z,83.50
2023-02-11T00:23:18.362Z,83.30
2023-02-11T00:25:46.057Z,83.45
2023-02-11T00:28:13.012Z,83.55
2023-02-11T00:30:40.004Z,83.70
2023-02-11T00:33:07.450Z,83.24
2023-02-11T00:35:34.046Z,83.16
2023-02-11T00:38:00.644Z,83.56
2023-02-11T00:40:28.327Z,83.38
2023-02-11T00:42:54.898Z,83.39
2023-02-11T00:45:21.562Z,82.77
2023-02-11T00:47:48.387Z,83.44
2023-02-11T00:50:15.021Z,82.96
2023-02-11T00:52:41.678Z,82.28
2023-02-11T00:55:08.726Z,82.94
2023-02-11T00:57:35.434Z,82.73
2023-02-11T01:00:02.196Z,82.75
2023-02-11T01:02:29.517Z,82.89
2023-02-11T01:04:56.269Z,82.46
2023-02-11T01:07:25.619Z,82.19
2023-02-11T01:09:52.543Z,82.33
2023-02-11T01:12:19.165Z,82.41
2023-02-11T01:14:45.810Z,82.49
2023-02-11T01:17:12.500Z,82.58
2023-02-11T01:19:39.650Z,81.97
2023-02-11T01:22:06.305Z,82.37
2023-02-11T01:24:34.048Z,82.55
2023-02-11T01:27:00.684Z,82.18
2023-02-11T01:29:27.307Z,81.73
2023-02-11T01:31:53.910Z,82.22
2023-02-11T01:34:20.485Z,82.36
2023-02-11T01:36:47.066Z,82.71
2023-02-11T01:39:13.690Z,82.44
2023-02-11T01:41:40.337Z,82.17
2023-02-11T01:44:25.705Z,81.32
2023-02-11T01:46:52.714Z,81.64
2023-02-11T01:49:25.288Z,81.57
2023-02-11T01:51:59.333Z,81.16
2023-02-11T01:54:48.658Z,81.02
2023-02-11T01:57:25.189Z,81.56
2023-02-11T02:00:04.489Z,81.00
2023-02-11T02:02:37.243Z,81.15
2023-02-11T02:05:14.785Z,81.61
2023-02-11T02:07:52.371Z,81.56
2023-02-11T02:10:24.348Z,80.94
2023-02-11T02:12:50.981Z,81.14
2023-02-11T02:15:33.517Z,80.64
2023-02-11T02:18:23.077Z,81.30
2023-02-11T02:21:22.628Z,81.13
2023-02-11T02:24:01.160Z,80.19
2023-02-11T02:26:40.213Z,80.39
2023-02-11T02:29:24.672Z,81.07
2023-02-11T02:32:00.776Z,80.97
2023-02-11T02:34:41.866Z,80.98
2023-02-11T02:37:17.493Z,81.02
2023-02-11T02:39:47.039Z,80.65
2023-02-11T02:42:14.956Z,80.91
2023-02-11T02:44:47.533Z,80.57
2023-02-11T02:47:14.333Z,81.09
2023-02-11T02:49:40.929Z,80.53
2023-02-11T02:52:27.759Z,80.73
2023-02-11T02:55:06.077Z,80.41
2023-02-11T02:57:38.387Z,79.99
2023-02-11T03:00:23.334Z,80.70
2023-02-11T03:03:19.752Z,80.61
2023-02-11T03:05:58.476Z,79.57
2023-02-11T03:08:36.635Z,80.20
2023-02-11T03:11:05.565Z,79.92
2023-02-11T03:13:35.868Z,79.82
2023-02-11T03:16:11.360Z,79.82
2023-02-11T03:18:42.420Z,79.18
2023-02-11T03:21:11.145Z,79.95
2023-02-11T03:23:42.714Z,79.58
2023-02-11T03:26:18.733Z,79.72
2023-02-11T03:28:52.731Z,79.43
2023-02-11T03:31:31.357Z,79.79
2023-02-11T03:34:13.502Z,79.96
2023-02-11T03:36:47.286Z,79.03
2023-02-11T03:39:22.752Z,79.79
2023-02-11T03:41:52.677Z,79.81
2023-02-11T03:44:21.508Z,80.42
2023-02-11T03:46:53.751Z,80.42
2023-02-11T03:49:23.431Z,80.51
2023-02-11T03:51:53.065Z,80.23
2023-02-11T03:54:29.774Z,79.49
2023-02-11T03:57:00.500Z,80.03
2023-02-11T03:59:27.726Z,79.62
2023-02-11T04:01:55.066Z,79.91
2023-02-11T04:04:21.979Z,80.14
2023-02-11T04:06:48.625Z,80.22
2023-02-11T04:09:16.814Z,79.72
2023-02-11T04:11:43.371Z,79.58
2023-02-11T04:14:09.968Z,79.86
2023-02-11T04:16:36.600Z,80.56
2023-02-11T04:19:03.341Z,80.53
2023-02-11T04:21:29.893Z,80.51
2023-02-11T04:23:56.800Z,80.71
2023-02-11T04:26:23.465Z,80.30
2023-02-11T04:28:50.007Z,79.29
2023-02-11T04:31:16.647Z,80.24
2023-02-11T04:33:43.325Z,79.10
2023-02-11T04:36:09.922Z,79.87
2023-02-11T04:38:37.314Z,79.63
2023-02-11T04:41:03.971Z,79.72
2023-02-11T04:43:30.542Z,79.74
2023-02-11T04:45:58.967Z,79.48
2023-02-11T04:48:26.281Z,79.51
2023-02-11T04:50:52.954Z,79.42
2023-02-11T04:53:19.887Z,79.19
2023-02-11T04:55:50.903Z,79.47
